createdAt,value
2022-10-24T00:01:26.036Z,6.00
2022-10-24T00:03:53.059Z,5.93
2022-10-24T00:06:20.618Z,5.25
2022-10-24T00:08:48.346Z,6.30
2022-10-24T00:11:18.604Z,5.72
2022-10-24T00:13:45.668Z,6.82
2022-10-24T00:16:13.211Z,7.47
2022-10-24T00:18:40.759Z,8.00
2022-10-24T00:21:08.535Z,7.32
2022-10-24T00:23:36.316Z,7.60
2022-10-24T00:26:04.556Z,8.15
2022-10-24T00:28:36.745Z,9.38
2022-10-24T00:31:05.362Z,13.05
2022-10-24T00:33:32.324Z,9.52
2022-10-24T00:35:59.488Z,8.07
2022-10-24T00:38:26.504Z,8.50
2022-10-24T00:40:53.568Z,8.75
2022-10-24T00:43:25.950Z,8.10
2022-10-24T00:46:01.215Z,8.02
2022-10-24T00:48:36.703Z,8.80
2022-10-24T00:51:08.218Z,7.97
2022-10-24T00:53:43.756Z,8.25
2022-10-24T00:56:13.232Z,8.50
2022-10-24T00:58:41.629Z,9.18
2022-10-24T01:01:09.242Z,7.93
2022-10-24T01:03:36.419Z,7.65
2022-10-24T01:06:27.601Z,8.23
2022-10-24T01:12:08.394Z,7.70
2022-10-24T01:15:21.054Z,6.03
2022-10-24T01:18:18.806Z,6.15
2022-10-24T01:20:56.392Z,6.60
2022-10-24T01:24:08.741Z,6.50
2022-10-24T01:27:19.604Z,7.20
2022-10-24T01:30:07.639Z,7.90
2022-10-24T01:32:59.037Z,7.13
2022-10-24T01:35:40.550Z,6.22
2022-10-24T01:38:30.668Z,7.03
2022-10-24T01:41:07.883Z,6.28
2022-10-24T01:44:05.217Z,6.68
2022-10-24T01:46:42.922Z,6.88
2022-10-24T01:49:19.504Z,7.25
2022-10-24T01:51:49.778Z,5.97
2022-10-24T01:54:17.199Z,5.82
2022-10-24T01:56:44.125Z,6.47
2022-10-24T01:59:29.087Z,6.00
2022-10-24T02:02:08.048Z,5.88
2022-10-24T02:04:38.153Z,6.43
2022-10-24T02:07:10.387Z,6.30
2022-10-24T02:09:40.109Z,5.55
2022-10-24T02:12:10.673Z,5.57
2022-10-24T02:14:45.170Z,6.53
2022-10-24T02:17:12.436Z,12.15
2022-10-24T02:19:39.545Z,8.70
2022-10-24T02:22:30.456Z,7.88
2022-10-24T02:25:10.538Z,7.72
2022-10-24T02:27:37.517Z,7.43
2022-10-24T02:30:14.419Z,6.78
2022-10-24T02:32:44.156Z,9.13
2022-10-24T02:35:15.366Z,7.57
2022-10-24T02:37:47.617Z,8.15
2022-10-24T02:40:17.368Z,8.32
2022-10-24T02:42:47.417Z,7.78
2022-10-24T02:45:16.386Z,7.43
2022-10-24T02:47:45.494Z,7.85
2022-10-24T02:50:13.522Z,7.55
2022-10-24T02:52:43.722Z,7.38
2022-10-24T02:55:12.024Z,7.63
2022-10-24T02:57:39.505Z,7.20
2022-10-24T03:00:07.700Z,7.05
2022-10-24T03:02:34.625Z,7.75
2022-10-24T03:05:01.577Z,7.70
2022-10-24T03:07:28.500Z,8.27
2022-10-24T03:09:55.547Z,6.75
2022-10-24T03:12:23.245Z,7.55
2022-10-24T03:14:50.180Z,7.82
2022-10-24T03:17:17.104Z,6.50
2022-10-24T03:19:45.335Z,8.20
2022-10-24T03:22:12.346Z,8.27
2022-10-24T03:24:44.493Z,9.00
2022-10-24T03:27:21.820Z,7.90
2022-10-24T03:29:48.918Z,7.07
2022-10-24T08:34:39.920Z,4.68
2022-10-24T08:37:06.993Z,5.18
2022-10-24T08:39:34.025Z,3.55
2022-10-24T08:42:14.161Z,4.43
2022-10-24T08:44:44.241Z,4.03
2022-10-24T08:47:29.149Z,4.60
2022-10-24T08:50:01.576Z,4.03
2022-10-24T08:52:34.438Z,5.00
2022-10-24T08:55:20.318Z,3.08
2022-10-24T08:57:55.971Z,3.72
2022-10-24T09:03:43.967Z,3.25
2022-10-24T09:06:19.644Z,4.00
2022-10-24T09:09:40.237Z,3.42
2022-10-24T09:12:14.013Z,2.95
2022-10-24T09:14:43.319Z,3.42
2022-10-24T09:19:59.378Z,2.88
2022-10-24T09:22:30.729Z,3.22
2022-10-24T09:25:04.299Z,3.45
2022-10-24T09:27:37.498Z,5.07
2022-10-24T09:30:06.386Z,3.95
2022-10-24T09:32:35.533Z,4.07
2022-10-24T09:35:09.502Z,2.90
2022-10-24T09:37:42.708Z,3.38
2022-10-24T09:40:26.424Z,2.90
2022-10-24T09:42:58.511Z,3.25
2022-10-24T09:45:30.977Z,3.15
2022-10-24T09:48:02.446Z,3.22
2022-10-24T09:50:33.117Z,3.10
2022-10-24T09:53:01.818Z,2.72
2022-10-24T09:55:29.694Z,3.00
2022-10-24T09:58:00.338Z,3.13
2022-10-24T10:00:31.038Z,3.40
2022-10-24T10:03:24.120Z,3.22
2022-10-24T10:05:54.652Z,3.60
2022-10-24T10:08:30.941Z,3.60
2022-10-24T10:11:08.451Z,3.30
2022-10-24T10:13:50.507Z,2.90
2022-10-24T10:16:52.991Z,3.13
2022-10-24T10:19:21.931Z,3.53
2022-10-24T10:21:56.345Z,3.53
2022-10-24T10:24:43.486Z,3.20
2022-10-24T10:27:30.539Z,3.72
2022-10-24T10:30:17.599Z,3.20
2022-10-24T10:33:23.160Z,3.17
2022-10-24T10:36:02.267Z,3.58
2022-10-24T10:38:44.555Z,3.63
2022-10-24T10:41:34.608Z,3.47
2022-10-24T10:44:25.354Z,3.50
2022-10-24T10:47:02.156Z,3.53
2022-10-24T10:49:32.778Z,3.38
2022-10-24T10:52:13.926Z,3.50
2022-10-24T10:58:00.184Z,3.42
2022-10-24T11:00:48.159Z,3.72
2022-10-24T11:03:29.873Z,3.30
2022-10-24T11:06:12.501Z,3.38
2022-10-24T11:08:50.606Z,3.63
2022-10-24T11:11:25.035Z,3.95
2022-10-24T11:14:39.426Z,3.88
2022-10-24T11:17:30.250Z,3.53
2022-10-24T11:20:03.880Z,3.25
2022-10-24T11:22:45.912Z,4.05
2022-10-24T11:25:41.956Z,3.17
2022-10-24T11:28:14.498Z,3.70
2022-10-24T11:31:01.674Z,3.58
2022-10-24T11:33:35.628Z,3.40
2022-10-24T11:36:20.882Z,3.33
2022-10-24T11:39:11.914Z,3.58
2022-10-24T11:41:50.271Z,3.28
2022-10-24T11:44:35.043Z,3.40
2022-10-24T11:47:34.270Z,3.47
2022-10-24T11:50:05.857Z,3.47
2022-10-24T11:52:39.230Z,3.22
2022-10-24T11:55:16.598Z,3.35
2022-10-24T11:57:46.399Z,3.63
2022-10-24T12:00:21.438Z,3.30
2022-10-24T12:03:15.841Z,3.38
2022-10-24T12:06:33.581Z,2.85
2022-10-24T12:09:29.518Z,2.80
2022-10-24T12:12:08.107Z,2.78
2022-10-24T12:15:00.913Z,2.92
2022-10-24T12:18:01.954Z,2.97
2022-10-24T12:20:29.446Z,2.92
2022-10-24T12:22:57.931Z,2.60
2022-10-24T12:25:35.598Z,2.72
2022-10-24T12:28:21.527Z,3.30
2022-10-24T12:31:20.963Z,2.70
2022-10-24T12:34:15.718Z,3.00
2022-10-24T12:37:01.299Z,2.88
2022-10-24T12:39:56.088Z,3.70
2022-10-24T12:42:25.655Z,2.83
2022-10-24T12:45:32.444Z,16.27
2022-10-24T12:47:59.414Z,3.00
2022-10-24T12:50:27.714Z,3.30
2022-10-24T12:52:54.703Z,3.47
2022-10-24T12:55:50.436Z,3.28
2022-10-24T12:58:30.933Z,2.70
2022-10-24T13:01:08.021Z,2.90
2022-10-24T13:03:49.711Z,3.40
2022-10-24T13:06:31.751Z,3.40
2022-10-24T13:09:14.017Z,3.55
2022-10-24T13:12:00.377Z,3.50
2022-10-24T13:14:51.163Z,10.02
2022-10-24T13:17:59.942Z,3.67
2022-10-24T13:20:30.782Z,3.58
2022-10-24T13:23:11.754Z,3.20
2022-10-24T13:25:39.796Z,3.20
2022-10-24T13:28:24.841Z,2.90
2022-10-24T13:31:17.229Z,3.00
2022-10-24T13:33:46.191Z,3.10
2022-10-24T13:36:18.031Z,3.10
2022-10-24T13:38:50.252Z,5.60
2022-10-24T13:41:30.711Z,2.95
2022-10-24T13:44:22.010Z,4.97
2022-10-24T13:47:17.897Z,5.55
2022-10-24T13:49:56.430Z,4.47
2022-10-24T13:52:46.871Z,2.67
2022-10-24T13:55:38.229Z,9.93
2022-10-24T13:58:23.060Z,3.15
2022-10-24T14:01:03.136Z,3.20
2022-10-24T14:03:31.830Z,2.80
2022-10-24T14:06:04.213Z,3.92
2022-10-24T23:03:22.258Z,3.10
2022-10-24T23:06:00.125Z,3.30
2022-10-24T23:08:39.154Z,3.15
2022-10-24T23:11:06.639Z,3.20
2022-10-24T23:13:33.925Z,3.35
2022-10-24T23:16:09.186Z,3.58
2022-10-24T23:18:36.402Z,3.83
2022-10-24T23:21:22.570Z,4.00
2022-10-24T23:23:49.702Z,4.07
2022-10-24T23:26:34.075Z,3.95
2022-10-24T23:29:15.473Z,3.40
2022-10-24T23:31:42.612Z,3.22
2022-10-24T23:35:05.890Z,3.33
2022-10-24T23:37:53.698Z,3.63
2022-10-24T23:40:27.004Z,3.42
2022-10-24T23:42:54.418Z,3.55
2022-10-24T23:45:24.342Z,4.30
2022-10-24T23:47:57.066Z,3.80
2022-10-24T23:50:26.739Z,3.67
2022-10-24T23:53:11.725Z,4.20
2022-10-24T23:55:38.878Z,4.00
2022-10-24T23:58:05.877Z,3.25
